Time;durP1;ratioP1;P1;durP2;ratioP2;P2;SDS_P1;SDS_P2;PMS_P1;PMS_P2;Temp;Humidity;BMP_temperature;BMP_pressure;BME280_temperature;BME280_humidity;BME280_pressure;Samples;Min_cycle;Max_cycle;Signal;HPM_P1;HPM_P2
2023/04/18 00:00:33;;;;;;;6.45;4.85;;;11.20;1.00;;;;;;5086034;28;21464;-66
2023/04/18 00:03:05;;;;;;;8.00;5.20;;;11.30;1.00;;;;;;5136562;28;20043;-67
2023/04/18 00:05:39;;;;;;;6.38;4.88;;;11.20;1.00;;;;;;5135728;28;20061;-66
2023/04/18 00:08:11;;;;;;;6.13;5.15;;;11.20;1.00;;;;;;5138336;28;20042;-65
2023/04/18 00:10:42;;;;;;;7.95;5.15;;;11.20;1.00;;;;;;5157280;28;20037;-63
2023/04/18 00:13:13;;;;;;;7.05;5.07;;;11.10;1.00;;;;;;5173687;28;20041;-66
2023/04/18 00:15:53;;;;;;;7.43;5.65;;;11.10;1.00;;;;;;5169814;28;20296;-65
2023/04/18 00:18:27;;;;;;;7.63;5.10;;;11.10;1.00;;;;;;5120219;28;20046;-66
2023/04/18 00:21:07;;;;;;;7.25;5.25;;;11.10;1.00;;;;;;5126343;28;20038;-67
2023/04/18 00:23:41;;;;;;;6.10;4.65;;;11.10;1.00;;;;;;5172457;28;20038;-67
2023/04/18 00:26:12;;;;;;;7.20;5.03;;;11.10;1.00;;;;;;5139711;28;20030;-67
2023/04/18 00:28:46;;;;;;;7.28;5.20;;;11.10;1.00;;;;;;5173082;28;20037;-67
2023/04/18 00:31:19;;;;;;;8.70;5.50;;;11.00;1.00;;;;;;5152581;28;20067;-67
2023/04/18 00:33:53;;;;;;;6.50;4.03;;;11.00;1.00;;;;;;5159024;28;20053;-66
2023/04/18 00:36:33;;;;;;;6.75;5.10;;;11.00;1.00;;;;;;5151922;28;20029;-64
2023/04/18 00:39:05;;;;;;;5.75;4.70;;;11.00;1.00;;;;;;5152520;28;20022;-66
2023/04/18 00:41:41;;;;;;;6.45;4.15;;;11.00;1.00;;;;;;5155944;28;20034;-66
2023/04/18 00:44:15;;;;;;;6.22;4.72;;;11.00;1.00;;;;;;5138529;28;20037;-67
2023/04/18 00:46:48;;;;;;;7.83;5.23;;;11.00;1.00;;;;;;5137379;28;20033;-66
2023/04/18 00:49:20;;;;;;;6.68;5.07;;;11.00;1.00;;;;;;5139689;28;20033;-67
2023/04/18 00:51:55;;;;;;;6.03;4.55;;;11.00;1.00;;;;;;5171162;28;20042;-66
2023/04/18 00:54:30;;;;;;;6.18;4.60;;;11.00;1.00;;;;;;5137611;28;20042;-66
2023/04/18 00:57:03;;;;;;;7.68;5.25;;;11.00;1.00;;;;;;5156088;28;20035;-67
2023/04/18 00:59:37;;;;;;;7.15;4.63;;;10.90;1.00;;;;;;5156262;28;20604;-65
2023/04/18 01:02:08;;;;;;;6.13;5.05;;;10.90;1.00;;;;;;5209677;22;20049;-73
2023/04/18 01:04:42;;;;;;;5.60;3.80;;;11.00;1.00;;;;;;5184347;28;20044;-72
2023/04/18 01:07:13;;;;;;;6.13;4.72;;;11.00;1.00;;;;;;5189625;28;20052;-73
2023/04/18 01:09:45;;;;;;;4.78;4.28;;;10.90;1.00;;;;;;5178219;28;20055;-73
2023/04/18 01:12:19;;;;;;;7.18;4.35;;;10.90;1.00;;;;;;5172167;28;20044;-73
2023/04/18 01:14:53;;;;;;;4.88;4.00;;;10.90;1.00;;;;;;5155511;28;20043;-74
2023/04/18 01:17:28;;;;;;;4.15;3.58;;;10.90;1.00;;;;;;5135611;28;20037;-73
2023/04/18 01:20:05;;;;;;;4.97;4.10;;;10.90;1.00;;;;;;5188315;28;20033;-72
2023/04/18 01:22:36;;;;;;;5.30;4.10;;;10.90;1.00;;;;;;5187619;28;20029;-72
2023/04/18 01:25:08;;;;;;;4.05;3.28;;;10.90;1.00;;;;;;5184182;28;20470;-72
2023/04/18 01:27:45;;;;;;;6.05;4.07;;;10.90;1.00;;;;;;5166103;28;20502;-72
2023/04/18 01:30:16;;;;;;;5.82;3.88;;;10.90;1.00;;;;;;5158099;28;20037;-73
2023/04/18 01:32:47;;;;;;;5.63;4.13;;;10.90;1.00;;;;;;5186635;28;20486;-73
2023/04/18 01:35:18;;;;;;;4.05;3.08;;;10.90;1.00;;;;;;5173534;28;20059;-73
2023/04/18 01:37:52;;;;;;;4.35;3.53;;;10.90;1.00;;;;;;5166525;28;20045;-72
2023/04/18 01:40:29;;;;;;;5.07;3.70;;;10.90;1.00;;;;;;5173992;28;20034;-72
2023/04/18 01:43:00;;;;;;;4.03;2.85;;;10.90;1.00;;;;;;5181387;28;20237;-73
2023/04/18 01:45:36;;;;;;;5.05;3.25;;;10.90;1.00;;;;;;5192875;28;20032;-74
2023/04/18 01:48:07;;;;;;;4.60;3.80;;;10.90;1.00;;;;;;5178566;28;20025;-73
2023/04/18 01:50:41;;;;;;;5.38;3.47;;;10.90;1.00;;;;;;5190997;28;20029;-72
2023/04/18 01:53:18;;;;;;;5.53;3.92;;;10.90;1.00;;;;;;5173634;28;20045;-71
2023/04/18 01:55:49;;;;;;;5.93;3.80;;;10.80;1.00;;;;;;5210495;28;20515;-74
2023/04/18 01:58:22;;;;;;;7.13;4.53;;;10.80;1.00;;;;;;5175103;28;20041;-72
2023/04/18 02:00:56;;;;;;;6.70;4.25;;;10.80;1.00;;;;;;5186291;28;20533;-72
2023/04/18 02:03:28;;;;;;;5.72;4.32;;;10.80;1.00;;;;;;5182876;28;20036;-73
2023/04/18 02:06:00;;;;;;;4.50;3.55;;;10.80;1.00;;;;;;5158832;28;20073;-71
2023/04/18 02:08:34;;;;;;;4.78;3.65;;;10.80;1.00;;;;;;5173152;28;20139;-72
2023/04/18 02:11:05;;;;;;;5.32;4.03;;;10.80;1.00;;;;;;5162876;28;20028;-73
2023/04/18 02:13:39;;;;;;;6.53;3.65;;;10.80;1.00;;;;;;5212159;28;20024;-73
2023/04/18 02:16:12;;;;;;;5.63;3.83;;;10.70;1.00;;;;;;5192155;28;20039;-73
2023/04/18 02:18:44;;;;;;;5.35;4.15;;;10.70;1.00;;;;;;5181625;28;20039;-73
2023/04/18 02:21:16;;;;;;;4.65;3.40;;;10.80;1.00;;;;;;5193800;28;20029;-73
2023/04/18 02:23:52;;;;;;;6.15;4.50;;;10.70;1.00;;;;;;5175031;28;20025;-73
2023/04/18 02:26:28;;;;;;;5.32;4.32;;;10.70;1.00;;;;;;5164958;28;20181;-73
2023/04/18 02:29:01;;;;;;;7.22;5.00;;;10.70;1.00;;;;;;5167793;28;20045;-73
2023/04/18 02:31:33;;;;;;;4.70;3.50;;;10.70;1.00;;;;;;5182708;28;20484;-72
2023/04/18 02:34:11;;;;;;;6.32;4.28;;;10.70;1.00;;;;;;5187519;28;20047;-74
2023/04/18 02:36:42;;;;;;;6.75;4.50;;;10.70;1.00;;;;;;5176184;28;20037;-73
2023/04/18 02:39:19;;;;;;;7.13;3.95;;;10.70;1.00;;;;;;5180590;28;20044;-73
2023/04/18 02:41:50;;;;;;;5.38;3.58;;;10.70;1.00;;;;;;5195340;28;20037;-72
2023/04/18 02:44:21;;;;;;;5.00;3.53;;;10.70;1.00;;;;;;5174852;28;20048;-73
2023/04/18 02:46:55;;;;;;;4.45;3.42;;;10.70;1.00;;;;;;5174156;28;20033;-73
2023/04/18 02:49:26;;;;;;;4.85;3.47;;;10.70;1.00;;;;;;5189345;28;20043;-73
2023/04/18 02:51:57;;;;;;;4.55;3.75;;;10.70;1.00;;;;;;5184472;28;20052;-72
2023/04/18 02:54:28;;;;;;;3.70;3.28;;;10.70;1.00;;;;;;5177351;28;20036;-72
2023/04/18 02:57:02;;;;;;;4.30;3.28;;;10.70;1.00;;;;;;5196983;28;20032;-72
2023/04/18 02:59:36;;;;;;;4.67;4.17;;;10.60;1.00;;;;;;5182769;28;20037;-73
2023/04/18 03:02:07;;;;;;;3.65;3.00;;;10.60;1.00;;;;;;5188709;28;20262;-73
2023/04/18 03:04:39;;;;;;;4.22;3.38;;;10.70;1.00;;;;;;5182522;28;20048;-72
2023/04/18 03:07:11;;;;;;;4.78;3.22;;;10.70;1.00;;;;;;5186470;28;20044;-72
2023/04/18 03:09:47;;;;;;;3.72;2.92;;;10.60;1.00;;;;;;5196349;28;20678;-72
2023/04/18 03:12:20;;;;;;;3.95;3.30;;;10.70;1.00;;;;;;5193904;28;20048;-73
2023/04/18 03:14:57;;;;;;;4.30;2.67;;;10.60;1.00;;;;;;5194429;28;20047;-71
2023/04/18 03:17:30;;;;;;;3.53;2.58;;;10.70;1.00;;;;;;5195651;28;20037;-73
2023/04/18 03:20:01;;;;;;;3.80;2.92;;;10.70;1.00;;;;;;5214424;28;20153;-71
2023/04/18 03:22:35;;;;;;;3.75;2.92;;;10.70;1.00;;;;;;5170758;28;20037;-73
2023/04/18 03:25:09;;;;;;;4.78;3.53;;;10.60;1.00;;;;;;5179544;28;20037;-74
2023/04/18 03:27:42;;;;;;;4.00;2.78;;;10.60;1.00;;;;;;5180647;28;20039;-72
2023/04/18 03:30:16;;;;;;;2.17;1.98;;;10.60;1.00;;;;;;5178948;28;20033;-73
2023/04/18 03:32:48;;;;;;;;;;;10.60;1.00;;;;;;5197291;28;20037;-72
2023/04/18 03:35:21;;;;;;;4.28;2.90;;;10.70;1.00;;;;;;5197236;28;19913;-73
2023/04/18 03:37:54;;;;;;;4.90;3.40;;;10.60;1.00;;;;;;5180902;28;20037;-72
2023/04/18 03:40:28;;;;;;;2.67;2.47;;;10.70;1.00;;;;;;5191844;28;20051;-72
2023/04/18 03:43:02;;;;;;;2.95;2.35;;;10.60;1.00;;;;;;5159332;28;20037;-72
2023/04/18 03:45:39;;;;;;;2.92;2.55;;;10.70;1.00;;;;;;5161088;28;20063;-71
2023/04/18 03:48:13;;;;;;;3.53;2.70;;;10.70;1.00;;;;;;5179893;28;20035;-73
2023/04/18 03:50:48;;;;;;;3.00;2.67;;;10.70;1.00;;;;;;5183030;28;20135;-72
2023/04/18 03:53:23;;;;;;;3.30;2.75;;;10.60;1.00;;;;;;5194419;28;20068;-72
2023/04/18 03:55:57;;;;;;;2.85;2.53;;;10.70;1.00;;;;;;5188816;28;20405;-71
2023/04/18 03:58:31;;;;;;;2.65;2.42;;;10.60;1.00;;;;;;5195085;28;20043;-72
2023/04/18 04:01:05;;;;;;;3.58;3.15;;;10.60;1.00;;;;;;5209159;28;20025;-73
2023/04/18 04:03:38;;;;;;;2.60;2.35;;;10.60;1.00;;;;;;5196255;28;20677;-72
2023/04/18 04:06:10;;;;;;;2.67;2.25;;;10.60;1.00;;;;;;5185727;28;20583;-73
2023/04/18 04:08:41;;;;;;;3.78;3.10;;;10.60;1.00;;;;;;5214535;28;20494;-72
2023/04/18 04:11:14;;;;;;;3.05;2.47;;;10.60;1.00;;;;;;5195109;28;20043;-71
2023/04/18 04:13:47;;;;;;;2.92;2.47;;;10.70;1.00;;;;;;5185605;28;20045;-72
2023/04/18 04:16:22;;;;;;;4.63;2.47;;;10.70;1.00;;;;;;5172870;28;20037;-72
2023/04/18 04:18:54;;;;;;;2.92;2.55;;;10.60;1.00;;;;;;5159650;28;20037;-71
2023/04/18 04:21:25;;;;;;;3.42;3.13;;;10.60;1.00;;;;;;5144653;28;20541;-72
2023/04/18 04:23:57;;;;;;;2.72;2.38;;;10.70;2.80;;;;;;5195934;28;20045;-72
2023/04/18 04:26:29;;;;;;;3.28;2.58;;;10.70;1.00;;;;;;5192941;28;20036;-72
2023/04/18 04:29:02;;;;;;;2.67;2.10;;;10.60;1.00;;;;;;5192809;28;20147;-71
2023/04/18 04:31:38;;;;;;;4.95;2.90;;;10.60;1.00;;;;;;5166650;28;20037;-72
2023/04/18 04:34:09;;;;;;;3.60;2.40;;;10.60;1.00;;;;;;5190905;28;20021;-72
2023/04/18 04:36:41;;;;;;;3.00;2.60;;;10.60;9.40;;;;;;5173376;28;20033;-70
2023/04/18 04:39:14;;;;;;;3.33;2.80;;;10.60;5.20;;;;;;5195462;28;20036;-71
2023/04/18 04:41:46;;;;;;;2.75;2.10;;;10.60;15.70;;;;;;5171445;28;20037;-71
2023/04/18 04:44:17;;;;;;;3.35;2.50;;;10.70;4.30;;;;;;5202691;28;20041;-73
2023/04/18 04:46:54;;;;;;;3.05;1.80;;;10.60;1.00;;;;;;5171857;28;20051;-73
2023/04/18 04:49:25;;;;;;;2.75;2.55;;;10.60;1.00;;;;;;5188334;28;20043;-72
2023/04/18 04:51:57;;;;;;;2.83;2.30;;;10.60;1.00;;;;;;5208995;28;20036;-71
2023/04/18 04:54:32;;;;;;;3.65;2.10;;;10.60;1.00;;;;;;5187402;28;20535;-73
2023/04/18 04:57:04;;;;;;;2.40;2.20;;;10.60;1.00;;;;;;5194286;28;20032;-72
2023/04/18 04:59:35;;;;;;;1.90;1.58;;;10.60;7.20;;;;;;5157269;28;20041;-74
2023/04/18 05:02:12;;;;;;;2.83;2.30;;;10.60;19.30;;;;;;5207080;28;20044;-71
2023/04/18 05:04:46;;;;;;;1.83;1.73;;;10.60;1.00;;;;;;5196303;28;20053;-73
2023/04/18 05:07:19;;;;;;;3.57;2.60;;;10.60;5.00;;;;;;5173312;28;20043;-72
2023/04/18 05:09:53;;;;;;;2.30;2.08;;;10.60;15.30;;;;;;5209382;28;20360;-72
2023/04/18 05:12:30;;;;;;;2.20;2.00;;;10.60;1.00;;;;;;5207001;28;20037;-73
2023/04/18 05:15:01;;;;;;;2.63;2.20;;;10.60;22.20;;;;;;5188146;28;20044;-73
2023/04/18 05:17:32;;;;;;;2.13;1.80;;;10.60;1.00;;;;;;5196226;28;20026;-72
2023/04/18 05:20:10;;;;;;;3.28;2.95;;;10.60;1.00;;;;;;5184604;28;20028;-71
2023/04/18 05:22:42;;;;;;;2.28;1.92;;;10.60;1.00;;;;;;5195085;28;20033;-73
2023/04/18 05:25:14;;;;;;;2.40;1.73;;;10.60;1.00;;;;;;5194846;28;20249;-72
2023/04/18 05:27:48;;;;;;;2.40;2.15;;;10.60;1.00;;;;;;5198873;28;20029;-72
2023/04/18 05:30:19;;;;;;;2.08;1.88;;;10.60;1.00;;;;;;5198989;28;20366;-72
2023/04/18 05:32:53;;;;;;;1.85;1.70;;;10.60;1.00;;;;;;5195333;28;20025;-73
2023/04/18 05:35:25;;;;;;;2.22;2.03;;;10.60;1.00;;;;;;5212808;28;20436;-74
2023/04/18 05:38:03;;;;;;;1.83;1.73;;;10.60;1.00;;;;;;5194308;28;20345;-73
2023/04/18 05:40:34;;;;;;;2.80;2.00;;;10.60;31.80;;;;;;5193880;28;20067;-71
2023/04/18 05:43:07;;;;;;;1.67;1.52;;;10.60;1.00;;;;;;5194797;28;20467;-73
2023/04/18 05:45:41;;;;;;;2.00;1.55;;;10.60;1.00;;;;;;5175564;28;20037;-74
2023/04/18 05:48:16;;;;;;;3.60;2.10;;;10.60;1.00;;;;;;5193544;28;20265;-73
2023/04/18 05:50:49;;;;;;;2.30;2.08;;;10.60;1.00;;;;;;5189068;28;20045;-72
2023/04/18 05:53:22;;;;;;;3.28;2.22;;;10.60;1.00;;;;;;5193583;28;20040;-73
2023/04/18 05:55:55;;;;;;;3.88;2.05;;;10.60;1.00;;;;;;5176505;28;20217;-73
2023/04/18 05:58:27;;;;;;;2.08;1.75;;;10.60;1.00;;;;;;5194017;28;20361;-73
2023/04/18 06:01:05;;;;;;;2.95;2.03;;;10.60;1.00;;;;;;5192131;28;20066;-72
2023/04/18 06:03:37;;;;;;;2.22;1.70;;;10.60;1.00;;;;;;5211696;28;20054;-72
2023/04/18 06:06:11;;;;;;;2.75;2.30;;;10.60;1.00;;;;;;5167265;28;20061;-72
2023/04/18 06:08:45;;;;;;;2.30;1.98;;;10.60;1.00;;;;;;5177073;28;20033;-72
2023/04/18 06:11:18;;;;;;;2.05;1.60;;;10.60;1.00;;;;;;5192055;28;20045;-71
2023/04/18 06:13:54;;;;;;;1.60;1.50;;;10.60;1.00;;;;;;5198677;28;20037;-72
2023/04/18 06:16:26;;;;;;;1.63;1.52;;;10.60;1.00;;;;;;5202582;28;20359;-72
2023/04/18 06:19:02;;;;;;;1.83;1.73;;;10.60;1.00;;;;;;5193235;28;20039;-72
2023/04/18 06:21:35;;;;;;;2.60;1.88;;;10.70;1.00;;;;;;5209346;28;20033;-72
2023/04/18 06:24:09;;;;;;;3.58;1.98;;;10.70;1.00;;;;;;5212116;28;20047;-74
2023/04/18 06:26:40;;;;;;;2.35;2.15;;;10.80;1.00;;;;;;5173534;28;20560;-72
2023/04/18 06:29:16;;;;;;;1.55;1.45;;;10.80;1.00;;;;;;5157345;28;20208;-72
2023/04/18 06:31:49;;;;;;;2.38;2.08;;;10.80;1.00;;;;;;5183384;28;20039;-73
2023/04/18 06:34:21;;;;;;;2.30;2.05;;;10.90;1.00;;;;;;5167128;28;20052;-73
2023/04/18 06:36:56;;;;;;;1.88;1.67;;;10.90;1.00;;;;;;5177939;28;20041;-74
2023/04/18 06:39:30;;;;;;;;;;;10.90;1.00;;;;;;5185964;28;20021;-73
2023/04/18 06:42:03;;;;;;;2.47;1.80;;;10.90;1.00;;;;;;5173841;28;20360;-73
2023/04/18 06:44:41;;;;;;;1.85;1.15;;;10.90;1.00;;;;;;5206401;28;20023;-73
2023/04/18 06:47:13;;;;;;;3.40;2.47;;;10.90;1.00;;;;;;5159245;28;20349;-72
2023/04/18 06:49:44;;;;;;;2.25;1.88;;;10.80;1.00;;;;;;5167481;28;20049;-73
2023/04/18 06:52:17;;;;;;;1.80;1.67;;;10.80;1.00;;;;;;5196489;28;20044;-73
2023/04/18 06:54:51;;;;;;;2.00;1.90;;;10.80;1.00;;;;;;5184898;28;20329;-73
2023/04/18 06:57:22;;;;;;;1.90;1.77;;;10.80;1.00;;;;;;5180439;28;20225;-73
2023/04/18 06:59:53;;;;;;;2.05;1.90;;;10.90;1.00;;;;;;5180537;28;20286;-73
2023/04/18 07:02:27;;;;;;;1.52;1.42;;;10.90;1.00;;;;;;5197405;28;20037;-72
2023/04/18 07:05:00;;;;;;;2.13;1.88;;;10.90;1.00;;;;;;5131036;28;20067;-72
2023/04/18 07:07:32;;;;;;;2.15;1.77;;;10.90;1.00;;;;;;5061440;29;20178;-73
2023/04/18 07:10:04;;;;;;;1.70;1.58;;;10.80;1.00;;;;;;5061225;29;20336;-73
2023/04/18 07:12:36;;;;;;;1.75;1.50;;;10.90;5.60;;;;;;5064406;29;20244;-73
2023/04/18 07:15:11;;;;;;;1.55;1.45;;;10.90;1.00;;;;;;5079729;29;20042;-72
2023/04/18 07:17:45;;;;;;;1.38;1.20;;;11.00;1.00;;;;;;5087298;29;20032;-73
2023/04/18 07:20:16;;;;;;;2.22;1.48;;;11.10;1.00;;;;;;5076027;29;20048;-72
2023/04/18 07:22:49;;;;;;;2.53;1.88;;;11.10;1.00;;;;;;5085906;29;20035;-72
2023/04/18 07:25:26;;;;;;;2.47;2.03;;;11.10;1.00;;;;;;5074499;28;20300;-72
2023/04/18 07:28:02;;;;;;;1.38;1.27;;;11.10;1.00;;;;;;5122073;28;20039;-73
2023/04/18 07:30:38;;;;;;;1.95;1.65;;;11.10;1.00;;;;;;5056625;28;20268;-73
2023/04/18 07:33:16;;;;;;;2.00;1.80;;;11.10;1.00;;;;;;5092809;28;20509;-73
2023/04/18 07:35:49;;;;;;;1.48;1.38;;;11.20;1.00;;;;;;5085933;29;20320;-73
2023/04/18 07:38:23;;;;;;;1.73;1.63;;;11.30;1.00;;;;;;5099935;28;20192;-73
2023/04/18 07:40:58;;;;;;;2.83;1.52;;;11.30;1.00;;;;;;5092390;28;20046;-74
2023/04/18 07:43:37;;;;;;;1.52;1.42;;;11.20;1.00;;;;;;5100844;29;20027;-73
2023/04/18 07:46:09;;;;;;;1.67;1.50;;;11.20;1.00;;;;;;5058812;28;20244;-73
2023/04/18 07:48:40;;;;;;;1.63;1.52;;;11.10;1.00;;;;;;5089203;29;20031;-73
2023/04/18 07:51:11;;;;;;;1.45;1.35;;;11.10;1.00;;;;;;5078729;28;20337;-73
2023/04/18 07:53:43;;;;;;;1.63;1.40;;;11.10;1.00;;;;;;5089980;28;20232;-73
2023/04/18 07:56:15;;;;;;;3.47;2.42;;;11.10;1.00;;;;;;5064164;28;20323;-73
2023/04/18 07:58:48;;;;;;;2.15;1.80;;;11.10;1.00;;;;;;5074163;28;20046;-72
2023/04/18 08:01:23;;;;;;;2.65;2.10;;;11.00;1.00;;;;;;5038834;28;20046;-75
2023/04/18 08:03:56;;;;;;;2.25;1.70;;;11.10;1.00;;;;;;5087637;28;20051;-74
2023/04/18 08:06:30;;;;;;;2.10;1.70;;;11.10;1.00;;;;;;5029621;28;20173;-72
2023/04/18 08:09:07;;;;;;;2.30;2.03;;;11.20;1.00;;;;;;5092819;28;20027;-73
2023/04/18 08:11:43;;;;;;;2.03;1.75;;;11.10;1.00;;;;;;5076174;29;20048;-74
2023/04/18 08:14:17;;;;;;;2.22;1.92;;;11.20;1.00;;;;;;5101572;29;20311;-73
2023/04/18 08:16:48;;;;;;;2.22;2.10;;;11.20;1.00;;;;;;5059524;29;20353;-72
2023/04/18 08:19:22;;;;;;;1.92;1.80;;;11.30;1.00;;;;;;5069947;29;20035;-73
2023/04/18 08:21:53;;;;;;;2.28;2.08;;;11.20;1.00;;;;;;5089616;29;20311;-72
2023/04/18 08:24:28;;;;;;;2.60;2.28;;;11.30;1.00;;;;;;5101113;29;20269;-71
2023/04/18 08:26:59;;;;;;;2.70;1.83;;;11.30;1.00;;;;;;5070037;29;20265;-72
2023/04/18 08:29:33;;;;;;;2.20;2.00;;;11.30;1.00;;;;;;5083145;28;20031;-73
2023/04/18 08:32:08;;;;;;;3.75;2.63;;;11.30;1.00;;;;;;5082880;28;20075;-72
2023/04/18 08:34:39;;;;;;;2.63;2.42;;;11.30;1.00;;;;;;5079359;29;20340;-73
2023/04/18 08:37:10;;;;;;;2.47;2.08;;;11.20;1.00;;;;;;5077509;29;20240;-72
2023/04/18 08:39:44;;;;;;;3.88;2.40;;;11.30;1.00;;;;;;5095858;28;20034;-71
2023/04/18 08:42:18;;;;;;;3.45;2.50;;;11.30;1.00;;;;;;5077654;29;20044;-73
2023/04/18 08:44:49;;;;;;;2.03;1.77;;;11.40;1.00;;;;;;5079389;29;20344;-72
2023/04/18 08:47:22;;;;;;;2.30;2.08;;;11.40;1.00;;;;;;5069249;28;20299;-73
2023/04/18 08:49:54;;;;;;;1.80;1.70;;;11.50;1.00;;;;;;5133341;28;20320;-72
2023/04/18 08:52:28;;;;;;;3.22;2.55;;;11.60;1.00;;;;;;5090623;28;20027;-72
2023/04/18 08:55:01;;;;;;;2.37;2.17;;;11.50;1.00;;;;;;5108368;29;20403;-73
2023/04/18 08:57:34;;;;;;;4.35;2.20;;;11.40;1.00;;;;;;5083464;28;20050;-72
2023/04/18 09:00:10;;;;;;;8.15;2.83;;;11.50;1.00;;;;;;5069957;29;20341;-73
2023/04/18 09:02:53;;;;;;;3.28;2.78;;;11.50;1.00;;;;;;5084806;28;20319;-73
2023/04/18 09:05:26;;;;;;;3.55;3.05;;;11.60;1.00;;;;;;5072529;28;20050;-72
2023/04/18 09:07:57;;;;;;;2.60;2.35;;;11.70;1.00;;;;;;5100334;29;20057;-73
2023/04/18 09:10:31;;;;;;;2.55;1.95;;;11.70;1.00;;;;;;5100836;29;20303;-72
2023/04/18 09:13:06;;;;;;;2.22;2.08;;;11.70;1.00;;;;;;5107335;29;20297;-71
2023/04/18 09:15:38;;;;;;;3.05;2.40;;;11.90;1.00;;;;;;5079908;29;20040;-72
2023/04/18 09:18:13;;;;;;;2.92;2.08;;;12.20;1.00;;;;;;5060156;28;20027;-71
2023/04/18 09:20:48;;;;;;;2.75;2.53;;;12.20;1.00;;;;;;5076651;29;20050;-71
2023/04/18 09:23:23;;;;;;;2.45;2.25;;;12.40;1.00;;;;;;5106306;28;20038;-72
2023/04/18 09:25:57;;;;;;;2.28;2.08;;;12.70;1.00;;;;;;5080193;29;20035;-71
2023/04/18 09:28:31;;;;;;;2.47;2.22;;;12.80;99.90;;;;;;5088566;29;20497;-71
2023/04/18 09:31:09;;;;;;;3.03;2.70;;;13.00;99.90;;;;;;5122991;28;20351;-71
2023/04/18 09:33:55;;;;;;;4.57;2.28;;;13.40;99.90;;;;;;5171542;28;20327;-72
2023/04/18 09:36:30;;;;;;;6.50;3.15;;;13.50;99.90;;;;;;5079470;28;20035;-73
2023/04/18 09:39:04;;;;;;;2.80;2.30;;;13.50;99.90;;;;;;5090172;29;20027;-72
2023/04/18 09:41:35;;;;;;;3.10;2.80;;;13.30;99.90;;;;;;5072209;28;20340;-72
2023/04/18 09:44:15;;;;;;;3.50;2.80;;;13.40;99.90;;;;;;5105920;29;20345;-72
2023/04/18 09:46:49;;;;;;;2.83;2.60;;;13.50;99.90;;;;;;5074120;28;20043;-72
2023/04/18 09:49:26;;;;;;;3.00;2.70;;;13.60;99.90;;;;;;5079273;28;20268;-72
2023/04/18 09:51:59;;;;;;;2.30;2.10;;;13.60;99.90;;;;;;5096342;28;20039;-72
2023/04/18 09:54:34;;;;;;;5.53;3.08;;;13.50;99.90;;;;;;5086039;29;20443;-71
2023/04/18 09:57:14;;;;;;;2.75;2.55;;;13.50;99.90;;;;;;5117869;28;20032;-71
2023/04/18 09:59:52;;;;;;;2.92;2.50;;;13.80;99.90;;;;;;5070857;29;20028;-71
2023/04/18 10:02:26;;;;;;;3.05;2.60;;;13.60;99.90;;;;;;5091599;29;20039;-71
2023/04/18 10:05:01;;;;;;;3.07;2.73;;;13.70;99.90;;;;;;5090602;29;20043;-71
2023/04/18 10:07:35;;;;;;;2.58;2.38;;;13.80;99.90;;;;;;5065441;29;20035;-72
2023/04/18 10:10:07;;;;;;;5.00;2.38;;;13.80;99.90;;;;;;5061997;28;20053;-71
2023/04/18 10:12:39;;;;;;;3.20;2.90;;;13.90;99.90;;;;;;5102045;29;20035;-71
2023/04/18 10:15:15;;;;;;;3.83;2.97;;;13.90;99.90;;;;;;5103900;29;20042;-71
2023/04/18 10:18:00;;;;;;;3.00;2.63;;;14.10;99.90;;;;;;5078505;28;20406;-71
2023/04/18 10:20:34;;;;;;;4.57;3.45;;;14.20;99.90;;;;;;5093538;29;20353;-71
2023/04/18 10:23:34;;;;;;;3.65;3.15;;;14.10;99.90;;;;;;5082991;28;20043;-71
2023/04/18 10:26:10;;;;;;;3.20;2.67;;;14.30;99.90;;;;;;5095372;28;20355;-72
2023/04/18 10:29:00;;;;;;;427.00;192.40;;;14.70;99.90;;;;;;5071013;28;20189;-72
2023/04/18 10:31:38;;;;;;;113.10;45.55;;;14.80;99.90;;;;;;5097187;28;20054;-71
2023/04/18 10:34:16;;;;;;;124.28;66.43;;;14.40;99.90;;;;;;5096061;29;20340;-71
2023/04/18 10:37:05;;;;;;;11.75;8.07;;;14.30;99.90;;;;;;5087639;29;20498;-71
2023/04/18 10:39:56;;;;;;;74.75;40.83;;;13.70;99.90;;;;;;5087835;29;20046;-71
2023/04/18 10:42:45;;;;;;;52.42;43.67;;;13.40;99.90;;;;;;5103873;29;20027;-70
2023/04/18 10:45:17;;;;;;;7.60;6.85;;;13.30;99.90;;;;;;5070624;29;20031;-73
2023/04/18 10:47:49;;;;;;;15.32;13.98;;;13.20;99.90;;;;;;5075074;29;20364;-73
2023/04/18 10:50:25;;;;;;;6.80;6.18;;;13.10;99.90;;;;;;5087632;28;20485;-71
2023/04/18 10:52:57;;;;;;;4.97;4.45;;;13.50;99.90;;;;;;5070484;28;20042;-71
2023/04/18 10:55:30;;;;;;;4.88;4.38;;;13.60;99.90;;;;;;5088722;28;20028;-71
2023/04/18 10:58:05;;;;;;;4.07;3.67;;;13.90;99.90;;;;;;5148556;28;20029;-70
2023/04/18 11:00:39;;;;;;;9.35;7.60;;;14.40;99.90;;;;;;5127097;28;20024;-71
2023/04/18 11:03:12;;;;;;;3.95;3.30;;;14.80;99.90;;;;;;5090312;29;20039;-71
2023/04/18 11:05:44;;;;;;;6.28;5.70;;;15.00;99.90;;;;;;5065700;28;20629;-71
2023/04/18 11:08:24;;;;;;;4.40;3.92;;;15.20;99.90;;;;;;5092056;29;20048;-71
2023/04/18 11:11:01;;;;;;;8.88;8.05;;;15.50;99.90;;;;;;5089629;29;20037;-71
2023/04/18 11:13:32;;;;;;;16.90;13.13;;;15.50;99.90;;;;;;5078526;29;20047;-71
2023/04/18 11:16:09;;;;;;;16.58;13.38;;;15.30;99.90;;;;;;5093001;28;20545;-73
2023/04/18 11:18:40;;;;;;;7.95;7.05;;;14.80;99.90;;;;;;5088720;29;20035;-72
2023/04/18 11:21:12;;;;;;;572.85;315.58;;;14.60;99.90;;;;;;5078388;28;20031;-73
2023/04/18 11:23:43;;;;;;;1304.15;635.88;;;14.60;99.90;;;;;;5090217;29;20137;-71
2023/04/18 11:26:16;;;;;;;11.68;7.15;;;14.90;99.90;;;;;;5066366;28;20252;-71
2023/04/18 11:28:51;;;;;;;147.77;74.40;;;15.10;99.90;;;;;;5073803;29;20041;-73
2023/04/18 11:31:24;;;;;;;232.30;127.13;;;15.50;99.90;;;;;;5104520;29;20046;-71
2023/04/18 11:34:01;;;;;;;242.38;149.38;;;15.30;99.90;;;;;;5094374;28;20043;-71
2023/04/18 11:36:36;;;;;;;58.20;38.95;;;15.30;99.90;;;;;;5095778;28;20047;-73
2023/04/18 11:39:09;;;;;;;5.35;4.85;;;15.10;99.90;;;;;;5098747;28;20038;-73
2023/04/18 11:41:49;;;;;;;57.67;47.78;;;14.40;99.90;;;;;;5107914;29;20031;-73
2023/04/18 11:44:27;;;;;;;51.58;46.05;;;14.20;99.90;;;;;;5095737;28;20050;-71
2023/04/18 11:47:00;;;;;;;5.43;3.88;;;13.90;99.90;;;;;;5091367;28;20294;-71
2023/04/18 11:49:34;;;;;;;8.43;7.60;;;13.50;99.90;;;;;;5086654;29;20209;-71
2023/04/18 11:52:12;;;;;;;19.15;17.20;;;13.70;99.90;;;;;;5094604;28;20046;-71
2023/04/18 11:54:49;;;;;;;6.22;5.38;;;13.70;99.90;;;;;;5093295;29;20077;-72
2023/04/18 11:57:22;;;;;;;4.43;3.75;;;14.10;99.90;;;;;;5080012;29;20241;-72
2023/04/18 11:59:56;;;;;;;10.98;9.85;;;14.30;99.90;;;;;;5089763;29;20028;-71
2023/04/18 12:02:40;;;;;;;5.28;4.10;;;14.20;99.90;;;;;;5073227;28;20048;-71
2023/04/18 12:05:30;;;;;;;4.38;3.97;;;14.20;99.90;;;;;;5091113;28;20095;-73
2023/04/18 12:08:08;;;;;;;4.75;4.10;;;14.60;99.90;;;;;;5097502;28;20367;-71
2023/04/18 12:10:53;;;;;;;4.65;3.67;;;14.70;99.90;;;;;;5070004;29;20181;-71
2023/04/18 12:13:34;;;;;;;4.72;3.67;;;15.00;99.90;;;;;;5073997;29;20039;-72
2023/04/18 12:16:06;;;;;;;5.07;3.90;;;14.80;99.90;;;;;;5088702;29;20039;-72
2023/04/18 12:18:40;;;;;;;5.22;4.50;;;14.80;99.90;;;;;;5090030;29;20366;-72
2023/04/18 12:21:12;;;;;;;4.55;3.83;;;14.70;99.90;;;;;;5101738;28;20042;-72
2023/04/18 12:23:46;;;;;;;3.60;2.80;;;14.60;99.90;;;;;;5072999;28;20040;-72
2023/04/18 12:26:18;;;;;;;4.38;3.65;;;14.60;99.90;;;;;;5068163;29;20539;-72
2023/04/18 12:28:57;;;;;;;6.30;5.40;;;14.00;99.90;;;;;;5084283;29;20035;-72
2023/04/18 12:31:28;;;;;;;6.55;4.70;;;13.90;99.90;;;;;;5050677;29;20039;-72
2023/04/18 12:33:59;;;;;;;8.55;6.25;;;13.90;99.90;;;;;;5087467;29;20517;-72
2023/04/18 12:36:33;;;;;;;4.78;4.00;;;14.00;99.90;;;;;;5088214;29;20640;-72
2023/04/18 12:39:04;;;;;;;6.82;5.50;;;14.00;99.90;;;;;;5069868;29;20075;-72
2023/04/18 12:41:35;;;;;;;5.40;4.13;;;13.70;99.90;;;;;;5086633;29;20043;-71
2023/04/18 12:44:06;;;;;;;5.85;5.25;;;13.50;99.90;;;;;;5070745;29;20036;-72
2023/04/18 12:46:38;;;;;;;7.40;5.43;;;13.50;99.90;;;;;;5079492;28;20034;-70
2023/04/18 12:49:11;;;;;;;13.20;9.50;;;13.40;99.90;;;;;;5046773;29;20044;-70
2023/04/18 12:51:42;;;;;;;4.88;4.22;;;12.80;99.90;;;;;;5057731;28;20043;-70
2023/04/18 12:54:13;;;;;;;6.65;5.82;;;12.60;99.90;;;;;;5061804;29;20047;-70
2023/04/18 12:56:45;;;;;;;4.80;4.20;;;12.60;99.90;;;;;;5079167;28;20115;-70
2023/04/18 12:59:19;;;;;;;3.97;3.58;;;12.40;99.90;;;;;;5065724;29;20056;-69
2023/04/18 13:01:53;;;;;;;3.53;3.22;;;12.40;99.90;;;;;;5076676;28;20047;-70
2023/04/18 13:04:29;;;;;;;3.95;2.95;;;12.20;99.90;;;;;;5082132;28;20036;-68
2023/04/18 13:07:01;;;;;;;4.57;3.10;;;12.10;99.90;;;;;;5102739;29;20096;-67
2023/04/18 13:09:32;;;;;;;3.95;3.20;;;12.00;99.90;;;;;;5102631;29;20320;-67
2023/04/18 13:12:04;;;;;;;3.63;2.83;;;12.10;99.90;;;;;;5075193;29;20143;-67
2023/04/18 13:14:35;;;;;;;3.65;2.97;;;12.10;99.90;;;;;;5041952;29;20048;-67
2023/04/18 13:17:09;;;;;;;7.70;6.85;;;12.20;99.90;;;;;;5086485;29;20059;-66
2023/04/18 13:19:43;;;;;;;4.30;3.90;;;12.20;99.90;;;;;;5100363;28;20046;-69
2023/04/18 13:22:14;;;;;;;;;;;12.20;99.90;;;;;;5071617;29;20024;-67
2023/04/18 13:24:46;;;;;;;2.92;2.60;;;12.30;99.90;;;;;;5173225;28;19989;-68
2023/04/18 13:27:17;;;;;;;2.67;2.40;;;12.40;99.90;;;;;;5091139;29;20046;-69